sensor_id;sensor_type;location;lat;lon;timestamp;pressure;altitude;pressure_sealevel;temperature;humidity
14818;BME280;7500;57.698;11.986;2022-12-18T00:00:43;102290.03;;;5.36;100.00
14818;BME280;7500;57.698;11.986;2022-12-18T00:03:12;102297.91;;;5.32;100.00
14818;BME280;7500;57.698;11.986;2022-12-18T00:05:47;102288.28;;;5.35;100.00
14818;BME280;7500;57.698;11.986;2022-12-18T00:08:14;102285.66;;;5.40;100.00
14818;BME280;7500;57.698;11.986;2022-12-18T00:10:42;102292.66;;;5.30;100.00
14818;BME280;7500;57.698;11.986;2022-12-18T00:13:09;102279.66;;;5.21;100.00
14818;BME280;7500;57.698;11.986;2022-12-18T00:15:36;102285.78;;;5.17;100.00
14818;BME280;7500;57.698;11.986;2022-12-18T00:18:03;102291.88;;;5.18;100.00
14818;BME280;7500;57.698;11.986;2022-12-18T00:20:31;102370.72;;;6.20;100.00
14818;BME280;7500;57.698;11.986;2022-12-18T00:22:59;102424.50;;;9.61;100.00
14818;BME280;7500;57.698;11.986;2022-12-18T00:25:26;102408.47;;;10.11;100.00
14818;BME280;7500;57.698;11.986;2022-12-18T00:27:53;102356.63;;;8.36;100.00
14818;BME280;7500;57.698;11.986;2022-12-18T00:30:20;102359.63;;;7.55;100.00
14818;BME280;7500;57.698;11.986;2022-12-18T00:32:47;102352.50;;;6.95;100.00
14818;BME280;7500;57.698;11.986;2022-12-18T00:35:14;102335.97;;;6.84;100.00
14818;BME280;7500;57.698;11.986;2022-12-18T00:37:41;102364.16;;;6.70;100.00
14818;BME280;7500;57.698;11.986;2022-12-18T00:40:11;102379.94;;;7.44;100.00
14818;BME280;7500;57.698;11.986;2022-12-18T00:42:38;102285.63;;;7.24;100.00
14818;BME280;7500;57.698;11.986;2022-12-18T00:45:24;102275.19;;;7.17;100.00
14818;BME280;7500;57.698;11.986;2022-12-18T00:47:51;102264.63;;;7.20;100.00
14818;BME280;7500;57.698;11.986;2022-12-18T00:50:19;102271.75;;;7.13;100.00
14818;BME280;7500;57.698;11.986;2022-12-18T00:52:46;102271.94;;;6.98;100.00
14818;BME280;7500;57.698;11.986;2022-12-18T00:55:14;102268.56;;;6.90;100.00
14818;BME280;7500;57.698;11.986;2022-12-18T00:57:42;102335.84;;;6.96;100.00
14818;BME280;7500;57.698;11.986;2022-12-18T01:00:11;102323.63;;;6.95;100.00
14818;BME280;7500;57.698;11.986;2022-12-18T01:02:38;102280.13;;;6.73;100.00
14818;BME280;7500;57.698;11.986;2022-12-18T01:05:06;102270.19;;;6.97;100.00
14818;BME280;7500;57.698;11.986;2022-12-18T01:07:33;102258.72;;;7.06;100.00
14818;BME280;7500;57.698;11.986;2022-12-18T01:10:00;102270.94;;;7.08;100.00
14818;BME280;7500;57.698;11.986;2022-12-18T01:12:28;102262.91;;;7.19;100.00
14818;BME280;7500;57.698;11.986;2022-12-18T01:14:55;102280.44;;;7.17;100.00
14818;BME280;7500;57.698;11.986;2022-12-18T01:17:22;102285.84;;;7.08;100.00
14818;BME280;7500;57.698;11.986;2022-12-18T01:19:49;102276.41;;;6.92;100.00
14818;BME280;7500;57.698;11.986;2022-12-18T01:22:16;102276.28;;;7.01;100.00
14818;BME280;7500;57.698;11.986;2022-12-18T01:24:43;102277.19;;;6.98;100.00
14818;BME280;7500;57.698;11.986;2022-12-18T01:27:10;102282.31;;;7.07;100.00
14818;BME280;7500;57.698;11.986;2022-12-18T01:29:38;102284.34;;;6.86;100.00
14818;BME280;7500;57.698;11.986;2022-12-18T01:32:05;102281.59;;;6.95;100.00
14818;BME280;7500;57.698;11.986;2022-12-18T01:34:32;102286.06;;;6.88;100.00
14818;BME280;7500;57.698;11.986;2022-12-18T01:37:02;102206.16;;;6.40;100.00
14818;BME280;7500;57.698;11.986;2022-12-18T01:39:29;102285.31;;;6.79;100.00
14818;BME280;7500;57.698;11.986;2022-12-18T01:41:57;102281.00;;;6.75;100.00
14818;BME280;7500;57.698;11.986;2022-12-18T01:45:00;102266.69;;;6.98;100.00
14818;BME280;7500;57.698;11.986;2022-12-18T01:47:32;102284.50;;;5.82;100.00
14818;BME280;7500;57.698;11.986;2022-12-18T01:50:02;102287.28;;;5.55;100.00
14818;BME280;7500;57.698;11.986;2022-12-18T01:52:31;102274.22;;;5.50;100.00
14818;BME280;7500;57.698;11.986;2022-12-18T01:55:00;102326.59;;;5.50;100.00
14818;BME280;7500;57.698;11.986;2022-12-18T01:57:28;102335.44;;;5.32;100.00
14818;BME280;7500;57.698;11.986;2022-12-18T02:00:02;102322.84;;;5.98;100.00
14818;BME280;7500;57.698;11.986;2022-12-18T02:02:30;102319.75;;;6.48;100.00
14818;BME280;7500;57.698;11.986;2022-12-18T02:04:57;102319.75;;;6.46;100.00
14818;BME280;7500;57.698;11.986;2022-12-18T02:07:32;102286.56;;;6.44;100.00
14818;BME280;7500;57.698;11.986;2022-12-18T02:10:05;102255.03;;;6.48;100.00
14818;BME280;7500;57.698;11.986;2022-12-18T02:12:42;102262.06;;;6.48;100.00
14818;BME280;7500;57.698;11.986;2022-12-18T02:15:14;102253.31;;;6.46;100.00
14818;BME280;7500;57.698;11.986;2022-12-18T02:17:46;102256.03;;;6.38;100.00
14818;BME280;7500;57.698;11.986;2022-12-18T02:20:18;102256.75;;;6.54;100.00
14818;BME280;7500;57.698;11.986;2022-12-18T02:23:01;102256.63;;;6.64;100.00
14818;BME280;7500;57.698;11.986;2022-12-18T02:25:43;102253.88;;;6.73;100.00
14818;BME280;7500;57.698;11.986;2022-12-18T02:28:16;102249.53;;;6.70;100.00
14818;BME280;7500;57.698;11.986;2022-12-18T02:30:48;102262.75;;;6.63;100.00
14818;BME280;7500;57.698;11.986;2022-12-18T02:33:15;102255.66;;;6.71;100.00
14818;BME280;7500;57.698;11.986;2022-12-18T02:35:44;102243.28;;;6.80;100.00
14818;BME280;7500;57.698;11.986;2022-12-18T02:38:12;102228.25;;;6.94;100.00
14818;BME280;7500;57.698;11.986;2022-12-18T02:40:40;102251.09;;;6.86;100.00
14818;BME280;7500;57.698;11.986;2022-12-18T02:43:09;102257.03;;;7.02;100.00
14818;BME280;7500;57.698;11.986;2022-12-18T02:45:46;102251.53;;;7.17;100.00
14818;BME280;7500;57.698;11.986;2022-12-18T02:48:13;102262.72;;;7.34;100.00
14818;BME280;7500;57.698;11.986;2022-12-18T02:50:45;102256.03;;;7.10;100.00
14818;BME280;7500;57.698;11.986;2022-12-18T02:53:22;102254.28;;;7.11;100.00
14818;BME280;7500;57.698;11.986;2022-12-18T02:55:59;102271.16;;;6.92;100.00
14818;BME280;7500;57.698;11.986;2022-12-18T02:58:35;102266.88;;;6.82;100.00
14818;BME280;7500;57.698;11.986;2022-12-18T03:01:13;102278.22;;;6.84;100.00
14818;BME280;7500;57.698;11.986;2022-12-18T03:03:44;102286.03;;;6.91;100.00
14818;BME280;7500;57.698;11.986;2022-12-18T03:06:18;102265.31;;;6.69;100.00
14818;BME280;7500;57.698;11.986;2022-12-18T03:08:50;102274.88;;;6.71;100.00
14818;BME280;7500;57.698;11.986;2022-12-18T03:11:20;102253.66;;;6.92;100.00
14818;BME280;7500;57.698;11.986;2022-12-18T03:14:07;102285.16;;;6.92;100.00
14818;BME280;7500;57.698;11.986;2022-12-18T03:16:39;102269.56;;;6.77;100.00
14818;BME280;7500;57.698;11.986;2022-12-18T03:19:11;102272.19;;;6.77;100.00
14818;BME280;7500;57.698;11.986;2022-12-18T03:21:45;102264.38;;;6.73;100.00
14818;BME280;7500;57.698;11.986;2022-12-18T03:24:15;102265.41;;;6.60;100.00
14818;BME280;7500;57.698;11.986;2022-12-18T03:26:45;102258.09;;;6.87;100.00
14818;BME280;7500;57.698;11.986;2022-12-18T03:29:17;102264.94;;;6.97;100.00
14818;BME280;7500;57.698;11.986;2022-12-18T03:31:51;102265.56;;;7.16;100.00
14818;BME280;7500;57.698;11.986;2022-12-18T03:34:23;102251.03;;;6.91;100.00
14818;BME280;7500;57.698;11.986;2022-12-18T03:36:50;102271.28;;;6.80;100.00
14818;BME280;7500;57.698;11.986;2022-12-18T03:39:18;102245.84;;;6.86;100.00
14818;BME280;7500;57.698;11.986;2022-12-18T03:41:51;102252.75;;;6.93;100.00
14818;BME280;7500;57.698;11.986;2022-12-18T03:44:21;102244.16;;;6.82;100.00
14818;BME280;7500;57.698;11.986;2022-12-18T03:46:58;102260.72;;;6.86;100.00
14818;BME280;7500;57.698;11.986;2022-12-18T03:49:34;102264.75;;;7.12;100.00
14818;BME280;7500;57.698;11.986;2022-12-18T03:52:04;102259.44;;;7.17;100.00
14818;BME280;7500;57.698;11.986;2022-12-18T03:54:33;102268.00;;;7.31;100.00
14818;BME280;7500;57.698;11.986;2022-12-18T03:57:06;102270.91;;;7.11;100.00
14818;BME280;7500;57.698;11.986;2022-12-18T03:59:34;102276.91;;;7.19;100.00
14818;BME280;7500;57.698;11.986;2022-12-18T04:02:04;102284.63;;;7.31;100.00
14818;BME280;7500;57.698;11.986;2022-12-18T04:04:33;102255.88;;;7.21;100.00
14818;BME280;7500;57.698;11.986;2022-12-18T04:07:01;102266.34;;;7.24;100.00
14818;BME280;7500;57.698;11.986;2022-12-18T04:09:30;102239.50;;;7.04;100.00
14818;BME280;7500;57.698;11.986;2022-12-18T04:11:57;102274.09;;;7.33;100.00
14818;BME280;7500;57.698;11.986;2022-12-18T04:14:24;102286.97;;;6.86;100.00
14818;BME280;7500;57.698;11.986;2022-12-18T04:16:51;102274.56;;;7.00;100.00
14818;BME280;7500;57.698;11.986;2022-12-18T04:19:19;102267.56;;;6.99;100.00
14818;BME280;7500;57.698;11.986;2022-12-18T04:21:46;102272.56;;;7.17;100.00
14818;BME280;7500;57.698;11.986;2022-12-18T04:24:13;102274.25;;;7.22;100.00
14818;BME280;7500;57.698;11.986;2022-12-18T04:26:40;102283.81;;;7.28;100.00
14818;BME280;7500;57.698;11.986;2022-12-18T04:29:07;102287.47;;;7.15;100.00
14818;BME280;7500;57.698;11.986;2022-12-18T04:31:34;102286.47;;;7.25;100.00
14818;BME280;7500;57.698;11.986;2022-12-18T04:34:01;102286.50;;;7.23;100.00
14818;BME280;7500;57.698;11.986;2022-12-18T04:36:29;102294.75;;;6.96;100.00
14818;BME280;7500;57.698;11.986;2022-12-18T04:38:56;102295.41;;;7.12;100.00
14818;BME280;7500;57.698;11.986;2022-12-18T04:41:23;102300.41;;;7.30;100.00
14818;BME280;7500;57.698;11.986;2022-12-18T04:43:50;102294.31;;;7.29;100.00
14818;BME280;7500;57.698;11.986;2022-12-18T04:46:17;102280.16;;;7.36;100.00
14818;BME280;7500;57.698;11.986;2022-12-18T04:48:45;102282.59;;;7.50;100.00
14818;BME280;7500;57.698;11.986;2022-12-18T04:51:13;102281.06;;;7.37;100.00
14818;BME280;7500;57.698;11.986;2022-12-18T04:53:41;102288.88;;;7.41;100.00
14818;BME280;7500;57.698;11.986;2022-12-18T04:56:10;102275.59;;;7.49;100.00
14818;BME280;7500;57.698;11.986;2022-12-18T04:58:38;102305.66;;;7.30;100.00
14818;BME280;7500;57.698;11.986;2022-12-18T05:01:07;102279.41;;;7.30;100.00
14818;BME280;7500;57.698;11.986;2022-12-18T05:03:35;102287.78;;;7.56;100.00
14818;BME280;7500;57.698;11.986;2022-12-18T05:06:02;102301.81;;;7.55;100.00
14818;BME280;7500;57.698;11.986;2022-12-18T05:08:29;102293.81;;;7.62;100.00
14818;BME280;7500;57.698;11.986;2022-12-18T05:11:02;102308.09;;;7.43;100.00
14818;BME280;7500;57.698;11.986;2022-12-18T05:13:31;102296.66;;;7.47;100.00
14818;BME280;7500;57.698;11.986;2022-12-18T05:15:58;102285.47;;;7.35;100.00
14818;BME280;7500;57.698;11.986;2022-12-18T05:18:25;102282.75;;;7.41;100.00
14818;BME280;7500;57.698;11.986;2022-12-18T05:20:53;102286.19;;;7.46;100.00
14818;BME280;7500;57.698;11.986;2022-12-18T05:23:22;102293.78;;;7.64;100.00
14818;BME280;7500;57.698;11.986;2022-12-18T05:25:51;102285.81;;;7.68;100.00
14818;BME280;7500;57.698;11.986;2022-12-18T05:28:21;102285.88;;;7.67;100.00
14818;BME280;7500;57.698;11.986;2022-12-18T05:30:48;102292.06;;;7.63;100.00
14818;BME280;7500;57.698;11.986;2022-12-18T05:33:16;102286.84;;;7.60;100.00
14818;BME280;7500;57.698;11.986;2022-12-18T05:35:43;102288.56;;;7.62;100.00
14818;BME280;7500;57.698;11.986;2022-12-18T05:38:10;102286.66;;;7.70;100.00
14818;BME280;7500;57.698;11.986;2022-12-18T05:40:41;102296.06;;;7.86;100.00
14818;BME280;7500;57.698;11.986;2022-12-18T05:43:08;102300.66;;;7.74;100.00
14818;BME280;7500;57.698;11.986;2022-12-18T05:45:38;102307.69;;;7.72;100.00
14818;BME280;7500;57.698;11.986;2022-12-18T05:48:05;102297.16;;;7.73;100.00
14818;BME280;7500;57.698;11.986;2022-12-18T05:50:34;102305.13;;;7.67;100.00
14818;BME280;7500;57.698;11.986;2022-12-18T05:53:01;102320.94;;;7.66;100.00
14818;BME280;7500;57.698;11.986;2022-12-18T05:55:27;102258.41;;;7.28;100.00
14818;BME280;7500;57.698;11.986;2022-12-18T05:57:54;102308.38;;;7.84;100.00
14818;BME280;7500;57.698;11.986;2022-12-18T06:00:21;102303.25;;;7.77;100.00
14818;BME280;7500;57.698;11.986;2022-12-18T06:02:50;102318.22;;;7.70;100.00
14818;BME280;7500;57.698;11.986;2022-12-18T06:05:17;102311.94;;;7.80;100.00
14818;BME280;7500;57.698;11.986;2022-12-18T06:07:43;102313.53;;;7.90;100.00
14818;BME280;7500;57.698;11.986;2022-12-18T06:10:10;102319.16;;;7.68;100.00
14818;BME280;7500;57.698;11.986;2022-12-18T06:12:37;102319.06;;;7.74;100.00
14818;BME280;7500;57.698;11.986;2022-12-18T06:15:05;102315.50;;;7.76;100.00
14818;BME280;7500;57.698;11.986;2022-12-18T06:17:33;102320.00;;;7.68;100.00
14818;BME280;7500;57.698;11.986;2022-12-18T06:20:03;102322.44;;;7.82;100.00
14818;BME280;7500;57.698;11.986;2022-12-18T06:22:30;102316.13;;;7.93;100.00
14818;BME280;7500;57.698;11.986;2022-12-18T06:24:57;102321.22;;;8.02;100.00
14818;BME280;7500;57.698;11.986;2022-12-18T06:27:24;102317.75;;;8.01;100.00
14818;BME280;7500;57.698;11.986;2022-12-18T06:29:51;102332.63;;;8.01;100.00
14818;BME280;7500;57.698;11.986;2022-12-18T06:32:18;102302.44;;;7.72;100.00
14818;BME280;7500;57.698;11.986;2022-12-18T06:34:45;102325.09;;;7.80;100.00
14818;BME280;7500;57.698;11.986;2022-12-18T06:37:13;102318.72;;;7.94;100.00
14818;BME280;7500;57.698;11.986;2022-12-18T06:39:40;102323.84;;;8.02;100.00
14818;BME280;7500;57.698;11.986;2022-12-18T06:42:07;102319.16;;;7.03;100.00
14818;BME280;7500;57.698;11.986;2022-12-18T06:44:34;102333.25;;;7.61;100.00
14818;BME280;7500;57.698;11.986;2022-12-18T06:47:01;102322.75;;;7.61;100.00
14818;BME280;7500;57.698;11.986;2022-12-18T06:49:28;102323.44;;;7.75;100.00
14818;BME280;7500;57.698;11.986;2022-12-18T06:51:55;102325.16;;;7.76;100.00
14818;BME280;7500;57.698;11.986;2022-12-18T06:54:23;102334.88;;;7.71;100.00
14818;BME280;7500;57.698;11.986;2022-12-18T06:56:50;102335.66;;;7.79;100.00
14818;BME280;7500;57.698;11.986;2022-12-18T06:59:17;102343.78;;;7.61;100.00
14818;BME280;7500;57.698;11.986;2022-12-18T07:01:44;102342.16;;;7.51;100.00
14818;BME280;7500;57.698;11.986;2022-12-18T07:04:11;102350.78;;;7.62;100.00
14818;BME280;7500;57.698;11.986;2022-12-18T07:06:38;102349.00;;;7.64;100.00
14818;BME280;7500;57.698;11.986;2022-12-18T07:09:05;102349.03;;;7.61;100.00
14818;BME280;7500;57.698;11.986;2022-12-18T07:11:33;102338.41;;;7.70;100.00
14818;BME280;7500;57.698;11.986;2022-12-18T07:14:00;102351.28;;;7.86;100.00
14818;BME280;7500;57.698;11.986;2022-12-18T07:16:27;102352.19;;;7.83;100.00
14818;BME280;7500;57.698;11.986;2022-12-18T07:18:55;102355.25;;;7.55;100.00
14818;BME280;7500;57.698;11.986;2022-12-18T07:21:23;102356.84;;;7.65;100.00
14818;BME280;7500;57.698;11.986;2022-12-18T07:23:50;102354.13;;;7.73;100.00
14818;BME280;7500;57.698;11.986;2022-12-18T07:26:19;102365.44;;;7.76;100.00
14818;BME280;7500;57.698;11.986;2022-12-18T07:28:48;102367.03;;;7.87;100.00
14818;BME280;7500;57.698;11.986;2022-12-18T07:31:17;102358.16;;;7.94;100.00
14818;BME280;7500;57.698;11.986;2022-12-18T07:33:45;102364.38;;;7.90;100.00
14818;BME280;7500;57.698;11.986;2022-12-18T07:36:12;102368.69;;;7.96;100.00
14818;BME280;7500;57.698;11.986;2022-12-18T07:38:40;102378.94;;;8.12;100.00
14818;BME280;7500;57.698;11.986;2022-12-18T07:41:09;102389.66;;;8.00;100.00
14818;BME280;7500;57.698;11.986;2022-12-18T07:43:36;102379.94;;;8.04;100.00
14818;BME280;7500;57.698;11.986;2022-12-18T07:46:06;102372.00;;;8.07;100.00
14818;BME280;7500;57.698;11.986;2022-12-18T07:48:33;102363.50;;;7.88;100.00
14818;BME280;7500;57.698;11.986;2022-12-18T07:51:00;102376.50;;;8.00;100.00
14818;BME280;7500;57.698;11.986;2022-12-18T07:53:28;102370.50;;;7.89;100.00
14818;BME280;7500;57.698;11.986;2022-12-18T07:55:55;102380.81;;;8.03;100.00
14818;BME280;7500;57.698;11.986;2022-12-18T07:58:23;102387.06;;;7.97;100.00
14818;BME280;7500;57.698;11.986;2022-12-18T08:00:50;102383.56;;;7.95;100.00
14818;BME280;7500;57.698;11.986;2022-12-18T08:03:19;102372.88;;;8.07;100.00
14818;BME280;7500;57.698;11.986;2022-12-18T08:05:46;102385.16;;;8.08;100.00
14818;BME280;7500;57.698;11.986;2022-12-18T08:08:13;102396.88;;;7.83;100.00
14818;BME280;7500;57.698;11.986;2022-12-18T08:10:40;102405.44;;;7.36;100.00
14818;BME280;7500;57.698;11.986;2022-12-18T08:13:07;102421.50;;;7.09;100.00
14818;BME280;7500;57.698;11.986;2022-12-18T08:15:34;102403.88;;;7.84;100.00
14818;BME280;7500;57.698;11.986;2022-12-18T08:18:01;102415.94;;;8.00;100.00
14818;BME280;7500;57.698;11.986;2022-12-18T08:20:29;102422.31;;;7.83;100.00
14818;BME280;7500;57.698;11.986;2022-12-18T08:22:56;102442.50;;;7.81;100.00
14818;BME280;7500;57.698;11.986;2022-12-18T08:25:23;102424.56;;;8.11;100.00
14818;BME280;7500;57.698;11.986;2022-12-18T08:27:50;102428.00;;;8.15;100.00
14818;BME280;7500;57.698;11.986;2022-12-18T08:30:17;102435.38;;;7.90;100.00
14818;BME280;7500;57.698;11.986;2022-12-18T08:32:44;102437.13;;;7.90;100.00
14818;BME280;7500;57.698;11.986;2022-12-18T08:35:11;102437.13;;;7.90;100.00
14818;BME280;7500;57.698;11.986;2022-12-18T08:37:40;102451.13;;;7.20;100.00
14818;BME280;7500;57.698;11.986;2022-12-18T08:40:08;102450.59;;;6.89;100.00
14818;BME280;7500;57.698;11.986;2022-12-18T08:42:35;102460.22;;;6.90;100.00
14818;BME280;7500;57.698;11.986;2022-12-18T08:45:25;102438.47;;;6.73;100.00
14818;BME280;7500;57.698;11.986;2022-12-18T08:47:52;102463.81;;;6.79;100.00
14818;BME280;7500;57.698;11.986;2022-12-18T08:50:19;102460.84;;;7.87;100.00
14818;BME280;7500;57.698;11.986;2022-12-18T08:52:47;102471.19;;;8.00;100.00
14818;BME280;7500;57.698;11.986;2022-12-18T08:55:14;102479.41;;;7.75;100.00
14818;BME280;7500;57.698;11.986;2022-12-18T08:57:42;102469.53;;;7.90;100.00
14818;BME280;7500;57.698;11.986;2022-12-18T09:00:10;102472.81;;;8.09;100.00
14818;BME280;7500;57.698;11.986;2022-12-18T09:02:38;102484.31;;;7.99;100.00
14818;BME280;7500;57.698;11.986;2022-12-18T09:05:06;102480.72;;;8.06;100.00
14818;BME280;7500;57.698;11.986;2022-12-18T09:07:33;102489.34;;;8.18;100.00
14818;BME280;7500;57.698;11.986;2022-12-18T09:10:01;102501.03;;;7.96;100.00
14818;BME280;7500;57.698;11.986;2022-12-18T09:12:28;102499.28;;;7.95;100.00
14818;BME280;7500;57.698;11.986;2022-12-18T09:14:55;102498.31;;;8.02;100.00
14818;BME280;7500;57.698;11.986;2022-12-18T09:17:23;102497.25;;;8.18;100.00
14818;BME280;7500;57.698;11.986;2022-12-18T09:19:49;102498.31;;;8.02;100.00
14818;BME280;7500;57.698;11.986;2022-12-18T09:22:17;102498.31;;;8.02;100.00
14818;BME280;7500;57.698;11.986;2022-12-18T09:24:44;102491.38;;;7.98;100.00
14818;BME280;7500;57.698;11.986;2022-12-18T09:27:12;102489.66;;;7.94;100.00
14818;BME280;7500;57.698;11.986;2022-12-18T09:29:39;102484.28;;;8.03;100.00
14818;BME280;7500;57.698;11.986;2022-12-18T09:32:06;102497.41;;;8.06;100.00
14818;BME280;7500;57.698;11.986;2022-12-18T09:34:33;102480.00;;;7.96;100.00
14818;BME280;7500;57.698;11.986;2022-12-18T09:37:00;102504.44;;;8.04;100.00
14818;BME280;7500;57.698;11.986;2022-12-18T09:39:27;102503.47;;;8.10;100.00
14818;BME280;7500;57.698;11.986;2022-12-18T09:41:56;102531.63;;;8.03;100.00
14818;BME280;7500;57.698;11.986;2022-12-18T09:44:27;102499.00;;;8.19;100.00
14818;BME280;7500;57.698;11.986;2022-12-18T09:47:03;102498.91;;;8.27;100.00
14818;BME280;7500;57.698;11.986;2022-12-18T09:49:35;102494.56;;;8.21;100.00
14818;BME280;7500;57.698;11.986;2022-12-18T09:52:08;102489.34;;;8.18;100.00
14818;BME280;7500;57.698;11.986;2022-12-18T09:54:39;102501.81;;;8.04;100.00
14818;BME280;7500;57.698;11.986;2022-12-18T09:57:06;102499.88;;;8.18;100.00
14818;BME280;7500;57.698;11.986;2022-12-18T09:59:39;102499.91;;;8.14;100.00
14818;BME280;7500;57.698;11.986;2022-12-18T10:02:14;102505.34;;;8.02;100.00
14818;BME280;7500;57.698;11.986;2022-12-18T10:04:42;102465.47;;;7.69;100.00
14818;BME280;7500;57.698;11.986;2022-12-18T10:07:14;102496.56;;;8.04;100.00
14818;BME280;7500;57.698;11.986;2022-12-18T10:09:55;102501.97;;;7.94;100.00
14818;BME280;7500;57.698;11.986;2022-12-18T10:12:29;102512.72;;;7.73;100.00
14818;BME280;7500;57.698;11.986;2022-12-18T10:15:07;102512.63;;;7.82;100.00
14818;BME280;7500;57.698;11.986;2022-12-18T10:17:42;102525.16;;;7.58;100.00
14818;BME280;7500;57.698;11.986;2022-12-18T10:20:15;102513.66;;;7.68;100.00
14818;BME280;7500;57.698;11.986;2022-12-18T10:22:53;102531.00;;;7.83;100.00
14818;BME280;7500;57.698;11.986;2022-12-18T10:25:28;102518.84;;;7.75;100.00
14818;BME280;7500;57.698;11.986;2022-12-18T10:28:00;102517.09;;;7.76;100.00
14818;BME280;7500;57.698;11.986;2022-12-18T10:30:35;102526.75;;;7.74;100.00
14818;BME280;7500;57.698;11.986;2022-12-18T10:33:02;102532.00;;;7.74;100.00
14818;BME280;7500;57.698;11.986;2022-12-18T10:35:29;102526.69;;;7.78;100.00
14818;BME280;7500;57.698;11.986;2022-12-18T10:38:04;102535.34;;;7.84;100.00
14818;BME280;7500;57.698;11.986;2022-12-18T10:40:32;102533.69;;;7.79;100.00
14818;BME280;7500;57.698;11.986;2022-12-18T10:43:11;102530.94;;;7.88;100.00
14818;BME280;7500;57.698;11.986;2022-12-18T10:45:40;102512.59;;;7.83;100.00
14818;BME280;7500;57.698;11.986;2022-12-18T10:48:18;102542.25;;;7.94;100.00
14818;BME280;7500;57.698;11.986;2022-12-18T10:50:48;102550.16;;;7.94;100.00
14818;BME280;7500;57.698;11.986;2022-12-18T10:53:20;102548.97;;;8.19;100.00
14818;BME280;7500;57.698;11.986;2022-12-18T10:55:47;102554.16;;;8.27;100.00
14818;BME280;7500;57.698;11.986;2022-12-18T10:58:23;102555.19;;;8.12;100.00
14818;BME280;7500;57.698;11.986;2022-12-18T11:01:13;102555.09;;;8.23;100.00
14818;BME280;7500;57.698;11.986;2022-12-18T11:03:42;102559.31;;;8.34;100.00
14818;BME280;7500;57.698;11.986;2022-12-18T11:06:11;102558.34;;;8.41;100.00
14818;BME280;7500;57.698;11.986;2022-12-18T11:08:39;102561.75;;;8.49;100.00
14818;BME280;7500;57.698;11.986;2022-12-18T11:11:15;102551.31;;;8.43;100.00
14818;BME280;7500;57.698;11.986;2022-12-18T11:14:00;102557.50;;;8.38;100.00
14818;BME280;7500;57.698;11.986;2022-12-18T11:16:33;102564.44;;;8.45;100.00
14818;BME280;7500;57.698;11.986;2022-12-18T11:19:17;102562.72;;;8.42;100.00
14818;BME280;7500;57.698;11.986;2022-12-18T11:21:46;102564.56;;;8.34;100.00
14818;BME280;7500;57.698;11.986;2022-12-18T11:24:21;102570.63;;;8.42;100.00
14818;BME280;7500;57.698;11.986;2022-12-18T11:26:50;102564.50;;;8.40;100.00
14818;BME280;7500;57.698;11.986;2022-12-18T11:29:23;102579.31;;;8.47;100.00
14818;BME280;7500;57.698;11.986;2022-12-18T11:32:21;102564.75;;;8.19;100.00
14818;BME280;7500;57.698;11.986;2022-12-18T11:34:52;102569.06;;;8.28;100.00
14818;BME280;7500;57.698;11.986;2022-12-18T11:37:22;102581.16;;;8.42;100.00
14818;BME280;7500;57.698;11.986;2022-12-18T11:39:55;102583.81;;;7.64;100.00
14818;BME280;7500;57.698;11.986;2022-12-18T11:42:27;102578.91;;;7.28;100.00
14818;BME280;7500;57.698;11.986;2022-12-18T11:45:02;102590.31;;;7.23;100.00
14818;BME280;7500;57.698;11.986;2022-12-18T11:47:38;102584.25;;;7.18;100.00
14818;BME280;7500;57.698;11.986;2022-12-18T11:50:14;102595.63;;;7.18;100.00
14818;BME280;7500;57.698;11.986;2022-12-18T11:52:42;102585.16;;;7.15;100.00
14818;BME280;7500;57.698;11.986;2022-12-18T11:55:12;102586.84;;;7.21;100.00
14818;BME280;7500;57.698;11.986;2022-12-18T11:57:47;102595.59;;;7.20;100.00
14818;BME280;7500;57.698;11.986;2022-12-18T12:00:19;102564.22;;;7.05;100.00
14818;BME280;7500;57.698;11.986;2022-12-18T12:03:04;102587.78;;;7.14;100.00
14818;BME280;7500;57.698;11.986;2022-12-18T12:05:45;102591.22;;;7.19;100.00
14818;BME280;7500;57.698;11.986;2022-12-18T12:08:19;102587.75;;;7.17;100.00
14818;BME280;7500;57.698;11.986;2022-12-18T12:10:57;102605.22;;;7.24;100.00
14818;BME280;7500;57.698;11.986;2022-12-18T12:13:36;102612.22;;;7.22;100.00
14818;BME280;7500;57.698;11.986;2022-12-18T12:16:14;102617.56;;;7.13;100.00
14818;BME280;7500;57.698;11.986;2022-12-18T12:18:56;102617.56;;;7.11;100.00
14818;BME280;7500;57.698;11.986;2022-12-18T12:21:32;102619.38;;;7.08;100.00
14818;BME280;7500;57.698;11.986;2022-12-18T12:24:09;102615.88;;;7.06;100.00
14818;BME280;7500;57.698;11.986;2022-12-18T12:26:45;102615.84;;;7.07;100.00
14818;BME280;7500;57.698;11.986;2022-12-18T12:29:25;102633.38;;;7.07;100.00
14818;BME280;7500;57.698;11.986;2022-12-18T12:32:01;102628.97;;;7.12;100.00
14818;BME280;7500;57.698;11.986;2022-12-18T12:34:37;102618.47;;;7.12;100.00
14818;BME280;7500;57.698;11.986;2022-12-18T12:37:19;102628.00;;;7.22;100.00
14818;BME280;7500;57.698;11.986;2022-12-18T12:39:48;102621.00;;;7.18;100.00
14818;BME280;7500;57.698;11.986;2022-12-18T12:42:23;102618.34;;;7.24;100.00
14818;BME280;7500;57.698;11.986;2022-12-18T12:45:17;102615.78;;;7.15;100.00
14818;BME280;7500;57.698;11.986;2022-12-18T12:47:48;102624.50;;;7.20;100.00
14818;BME280;7500;57.698;11.986;2022-12-18T12:50:19;102617.63;;;7.07;100.00
14818;BME280;7500;57.698;11.986;2022-12-18T12:52:48;102629.78;;;7.14;100.00
14818;BME280;7500;57.698;11.986;2022-12-18T12:55:20;102625.31;;;7.29;100.00
14818;BME280;7500;57.698;11.986;2022-12-18T12:57:55;102624.47;;;7.23;100.00
14818;BME280;7500;57.698;11.986;2022-12-18T13:00:25;102629.59;;;7.41;100.00
14818;BME280;7500;57.698;11.986;2022-12-18T13:03:03;102629.66;;;7.32;100.00
14818;BME280;7500;57.698;11.986;2022-12-18T13:05:41;102627.09;;;7.26;100.00